createdAt,value
2022-10-05T00:00:35.667Z,0.00
2022-10-05T00:01:35.698Z,0.00
2022-10-05T00:02:35.647Z,0.00
2022-10-05T00:03:35.637Z,0.00
2022-10-05T00:04:35.638Z,0.00
2022-10-05T00:05:35.674Z,0.00
2022-10-05T00:06:35.608Z,0.00
2022-10-05T00:07:35.599Z,0.00
2022-10-05T00:08:35.588Z,0.00
2022-10-05T00:09:35.560Z,0.00
2022-10-05T00:10:35.560Z,0.00
2022-10-05T00:11:35.549Z,0.00
2022-10-05T00:12:35.534Z,0.00
2022-10-05T00:13:35.516Z,0.00
2022-10-05T00:14:35.526Z,0.00
2022-10-05T00:15:35.497Z,0.00
2022-10-05T00:16:35.566Z,0.00
2022-10-05T00:17:35.469Z,0.00
2022-10-05T00:18:35.465Z,0.00
2022-10-05T00:19:35.447Z,0.00
2022-10-05T00:20:35.463Z,0.00
2022-10-05T00:21:35.460Z,0.00
2022-10-05T00:22:35.974Z,0.00
2022-10-05T00:23:35.418Z,0.00
2022-10-05T00:24:35.398Z,0.00
2022-10-05T00:25:35.398Z,0.00
2022-10-05T00:26:35.393Z,0.00
2022-10-05T00:27:35.389Z,0.00
2022-10-05T00:28:35.409Z,0.00
2022-10-05T00:29:35.343Z,0.00
2022-10-05T00:30:35.342Z,0.00
2022-10-05T00:31:35.373Z,0.00
2022-10-05T00:32:35.317Z,0.00
2022-10-05T00:33:35.314Z,0.00
2022-10-05T00:34:35.301Z,0.00
2022-10-05T00:35:35.285Z,0.00
2022-10-05T00:36:35.276Z,0.00
2022-10-05T00:37:35.371Z,0.00
2022-10-05T00:38:35.245Z,0.00
2022-10-05T00:39:35.238Z,0.00
2022-10-05T00:40:35.244Z,0.00
2022-10-05T00:41:35.206Z,0.00
2022-10-05T00:42:35.203Z,0.00
2022-10-05T00:43:35.203Z,0.00
2022-10-05T00:44:35.175Z,0.00
2022-10-05T00:45:42.254Z,0.00
2022-10-05T00:46:35.157Z,0.00
2022-10-05T00:47:35.138Z,0.00
2022-10-05T00:48:35.144Z,0.00
2022-10-05T00:49:35.116Z,0.00
2022-10-05T00:50:35.142Z,0.00
2022-10-05T00:51:35.103Z,0.00
2022-10-05T00:52:35.085Z,0.00
2022-10-05T00:53:35.097Z,0.00
2022-10-05T00:54:35.081Z,0.00
2022-10-05T00:55:35.060Z,0.00
2022-10-05T00:56:35.045Z,0.00
2022-10-05T00:57:35.028Z,0.00
2022-10-05T00:58:35.029Z,0.00
2022-10-05T00:59:35.051Z,0.00
2022-10-05T01:00:35.025Z,0.00
2022-10-05T01:01:35.067Z,0.00
2022-10-05T01:02:37.035Z,0.00
2022-10-05T01:03:34.979Z,0.00
2022-10-05T01:04:34.995Z,0.00
2022-10-05T01:05:34.948Z,0.00
2022-10-05T01:06:34.947Z,0.00
2022-10-05T01:07:34.919Z,0.00
2022-10-05T01:08:34.916Z,0.00
2022-10-05T01:09:34.928Z,0.00
2022-10-05T01:10:34.880Z,0.00
2022-10-05T01:11:34.902Z,0.00
2022-10-05T01:12:34.879Z,0.00
2022-10-05T01:13:34.867Z,0.00
2022-10-05T01:14:34.862Z,0.00
2022-10-05T01:15:34.829Z,0.00
2022-10-05T01:16:34.884Z,0.00
2022-10-05T01:17:34.806Z,0.00
2022-10-05T01:18:34.798Z,0.00
2022-10-05T01:19:34.794Z,0.00
2022-10-05T01:20:34.789Z,0.00
2022-10-05T01:21:34.762Z,0.00
2022-10-05T01:22:34.759Z,0.00
2022-10-05T01:23:34.757Z,0.00
2022-10-05T01:24:34.724Z,0.00
2022-10-05T01:25:34.736Z,0.00
2022-10-05T01:26:34.709Z,0.00
2022-10-05T01:27:34.714Z,0.00
2022-10-05T01:28:34.734Z,0.00
2022-10-05T01:29:34.696Z,0.00
2022-10-05T01:30:34.670Z,0.00
2022-10-05T01:31:34.757Z,0.00
2022-10-05T01:32:34.639Z,0.00
2022-10-05T01:33:34.643Z,0.00
2022-10-05T01:34:34.629Z,0.00
2022-10-05T01:35:34.608Z,0.00
2022-10-05T01:36:34.601Z,0.00
2022-10-05T01:37:34.611Z,0.00
2022-10-05T01:38:34.580Z,0.00
2022-10-05T01:39:34.609Z,0.00
2022-10-05T01:40:34.560Z,0.00
2022-10-05T01:41:34.599Z,0.00
2022-10-05T01:42:34.528Z,0.00
2022-10-05T01:43:34.520Z,0.00
2022-10-05T01:44:34.525Z,0.00
2022-10-05T01:45:34.545Z,0.00
2022-10-05T01:46:34.484Z,0.00
2022-10-05T01:47:34.477Z,0.00
2022-10-05T01:48:34.460Z,0.00
2022-10-05T01:49:34.478Z,0.00
2022-10-05T01:50:34.450Z,0.00
2022-10-05T01:51:34.435Z,0.00
2022-10-05T01:52:34.417Z,0.00
2022-10-05T01:53:34.423Z,0.00
2022-10-05T01:54:34.402Z,0.00
2022-10-05T01:55:34.402Z,0.00
2022-10-05T01:56:34.373Z,0.00
2022-10-05T01:57:34.386Z,0.00
2022-10-05T01:58:34.369Z,0.00
2022-10-05T01:59:34.348Z,0.00
2022-10-05T02:00:34.341Z,0.00
2022-10-05T02:01:34.343Z,0.00
2022-10-05T02:02:34.358Z,0.00
2022-10-05T02:03:34.313Z,0.00
2022-10-05T02:05:00.849Z,0.00
2022-10-05T02:05:35.293Z,0.00
2022-10-05T02:06:34.268Z,0.00
2022-10-05T02:07:34.260Z,0.00
2022-10-05T02:08:34.252Z,0.00
2022-10-05T02:09:34.247Z,0.00
2022-10-05T02:10:34.222Z,0.00
2022-10-05T02:11:34.213Z,0.00
2022-10-05T02:12:34.200Z,0.00
2022-10-05T02:13:34.216Z,0.00
2022-10-05T02:14:34.533Z,0.00
2022-10-05T02:15:34.215Z,0.00
2022-10-05T02:16:34.154Z,0.00
2022-10-05T02:17:34.158Z,0.00
2022-10-05T02:18:34.164Z,0.00
2022-10-05T02:19:34.131Z,0.00
2022-10-05T02:20:34.127Z,0.00
2022-10-05T02:21:34.125Z,0.00
2022-10-05T02:22:34.114Z,0.00
2022-10-05T02:23:34.085Z,0.00
2022-10-05T02:24:34.085Z,0.00
2022-10-05T02:25:34.107Z,0.00
2022-10-05T02:26:34.047Z,0.00
2022-10-05T02:27:34.043Z,0.00
2022-10-05T02:28:34.147Z,0.00
2022-10-05T02:29:34.044Z,0.00
2022-10-05T02:30:34.013Z,0.00
2022-10-05T02:31:34.063Z,0.00
2022-10-05T02:32:33.986Z,0.00
2022-10-05T02:33:34.006Z,0.00
2022-10-05T02:34:33.956Z,0.00
2022-10-05T02:35:33.972Z,0.00
2022-10-05T02:36:33.942Z,0.00
2022-10-05T02:37:33.929Z,0.00
2022-10-05T02:38:33.912Z,0.00
2022-10-05T02:39:33.919Z,0.00
2022-10-05T02:40:33.891Z,0.00
2022-10-05T02:41:33.885Z,0.00
2022-10-05T02:42:33.874Z,0.00
2022-10-05T02:43:33.862Z,0.00
2022-10-05T02:44:33.848Z,0.00
2022-10-05T02:45:33.917Z,0.00
2022-10-05T02:46:41.346Z,0.00
2022-10-05T02:47:33.819Z,0.00
2022-10-05T02:48:33.804Z,0.00
2022-10-05T02:49:33.813Z,0.00
2022-10-05T02:50:33.791Z,0.00
2022-10-05T02:51:33.774Z,0.00
2022-10-05T02:52:33.758Z,0.00
2022-10-05T02:53:33.757Z,0.00
2022-10-05T02:54:33.751Z,0.00
2022-10-05T02:55:33.744Z,0.00
2022-10-05T02:56:33.714Z,0.00
2022-10-05T02:57:33.717Z,0.00
2022-10-05T02:58:33.693Z,0.00
2022-10-05T02:59:33.723Z,0.00
2022-10-05T03:00:33.685Z,0.00
2022-10-05T03:01:33.762Z,0.00
2022-10-05T03:02:33.668Z,0.00
2022-10-05T03:03:33.647Z,0.00
2022-10-05T03:04:33.640Z,0.00
2022-10-05T03:05:33.633Z,0.00
2022-10-05T03:06:33.606Z,0.00
2022-10-05T03:07:33.612Z,0.00
2022-10-05T03:08:33.584Z,0.00
2022-10-05T03:09:33.579Z,0.00
2022-10-05T03:10:33.562Z,0.00
2022-10-05T03:11:33.567Z,0.00
2022-10-05T03:12:33.554Z,0.00
2022-10-05T03:13:33.547Z,0.00
2022-10-05T03:14:33.519Z,0.00
2022-10-05T03:15:33.525Z,0.00
2022-10-05T03:16:33.502Z,0.00
2022-10-05T03:17:33.694Z,0.00
2022-10-05T03:18:33.502Z,0.00
2022-10-05T03:19:33.468Z,0.00
2022-10-05T03:20:33.457Z,0.00
2022-10-05T03:21:33.448Z,0.00
2022-10-05T03:22:33.443Z,0.00
2022-10-05T03:23:33.425Z,0.00
2022-10-05T03:24:33.409Z,0.00
2022-10-05T03:25:33.407Z,0.00
2022-10-05T03:26:33.393Z,0.00
2022-10-05T03:27:33.400Z,0.00
2022-10-05T03:28:33.432Z,0.00
2022-10-05T03:29:33.369Z,0.00
2022-10-05T03:30:33.348Z,0.00
2022-10-05T03:31:33.397Z,0.00
2022-10-05T03:32:33.323Z,0.00
2022-10-05T03:33:33.358Z,0.00
2022-10-05T03:34:33.329Z,0.00
2022-10-05T03:35:33.297Z,0.00
2022-10-05T03:36:33.288Z,0.00
2022-10-05T03:37:33.317Z,0.00
2022-10-05T03:38:33.277Z,0.00
2022-10-05T03:39:33.258Z,0.00
2022-10-05T03:40:33.251Z,0.00
2022-10-05T03:41:33.231Z,0.00
2022-10-05T03:42:33.230Z,0.00
2022-10-05T03:43:34.059Z,0.00
2022-10-05T03:44:33.193Z,0.00
2022-10-05T03:45:33.190Z,0.00
2022-10-05T03:46:33.236Z,0.00
2022-10-05T03:47:33.163Z,0.00
2022-10-05T03:48:33.159Z,0.00
2022-10-05T03:49:33.179Z,0.00
2022-10-05T03:50:33.130Z,0.00
2022-10-05T03:51:33.134Z,0.00
2022-10-05T03:52:33.112Z,0.00
2022-10-05T03:53:33.101Z,0.00
2022-10-05T03:54:33.093Z,0.00
2022-10-05T03:55:33.077Z,0.00
2022-10-05T03:56:33.083Z,0.00
2022-10-05T03:57:33.072Z,0.00
2022-10-05T03:58:33.050Z,0.00
2022-10-05T03:59:33.043Z,0.00
2022-10-05T04:00:33.029Z,0.00
2022-10-05T04:01:33.062Z,0.00
2022-10-05T04:02:33.078Z,0.00
2022-10-05T04:03:33.006Z,0.00
2022-10-05T04:04:32.974Z,0.00
2022-10-05T04:05:32.995Z,0.00
2022-10-05T04:06:32.966Z,0.00
2022-10-05T04:07:32.960Z,0.00
2022-10-05T04:08:32.932Z,0.00
2022-10-05T04:09:32.925Z,0.00
2022-10-05T04:10:32.910Z,0.00
2022-10-05T04:11:32.905Z,0.00
2022-10-05T04:12:32.907Z,0.00
2022-10-05T04:13:32.885Z,0.00
2022-10-05T04:14:32.892Z,0.00
2022-10-05T04:15:32.929Z,0.00
2022-10-05T04:16:32.843Z,0.00
2022-10-05T04:17:32.865Z,0.00
2022-10-05T04:18:32.843Z,0.00
2022-10-05T04:19:32.817Z,0.00
2022-10-05T04:20:32.812Z,0.00
2022-10-05T04:21:32.840Z,0.00
2022-10-05T04:22:32.778Z,0.00
2022-10-05T04:23:32.792Z,0.00
2022-10-05T04:24:32.781Z,0.00
2022-10-05T04:25:32.773Z,0.00
2022-10-05T04:26:32.768Z,0.00
2022-10-05T04:27:32.737Z,0.00
2022-10-05T04:28:32.816Z,0.00
2022-10-05T04:29:32.710Z,0.00
2022-10-05T04:30:32.704Z,0.00
2022-10-05T04:31:32.790Z,0.00
2022-10-05T04:32:32.676Z,0.00
2022-10-05T04:33:32.663Z,0.00
2022-10-05T04:34:32.649Z,0.00
2022-10-05T04:35:32.642Z,0.00
2022-10-05T04:36:32.642Z,0.00
2022-10-05T04:37:32.654Z,0.00
2022-10-05T04:38:32.604Z,0.00
2022-10-05T04:39:32.609Z,0.00
2022-10-05T04:40:32.583Z,0.00
2022-10-05T04:41:32.588Z,0.00
2022-10-05T04:42:32.561Z,0.00
2022-10-05T04:43:32.555Z,0.00
2022-10-05T04:44:32.550Z,0.00
2022-10-05T04:45:32.533Z,0.00
2022-10-05T04:46:32.584Z,0.00
2022-10-05T04:47:40.022Z,0.00
2022-10-05T04:48:32.509Z,0.00
2022-10-05T04:49:32.493Z,0.00
2022-10-05T04:50:32.472Z,0.00
2022-10-05T04:51:32.468Z,0.00
2022-10-05T04:52:32.466Z,0.00
2022-10-05T04:53:32.466Z,0.00
2022-10-05T04:54:32.429Z,0.00
2022-10-05T04:55:32.422Z,0.00
2022-10-05T04:56:32.406Z,0.00
2022-10-05T04:57:32.418Z,0.00
2022-10-05T04:58:32.386Z,0.00
2022-10-05T04:59:32.379Z,0.00
2022-10-05T05:00:32.417Z,0.00
2022-10-05T05:01:32.363Z,0.00
2022-10-05T05:02:32.428Z,4.00
2022-10-05T05:03:32.411Z,4.00
2022-10-05T05:04:32.412Z,4.00
2022-10-05T05:05:32.394Z,0.00
2022-10-05T05:06:32.967Z,4.00
2022-10-05T05:07:32.826Z,4.00
2022-10-05T05:08:32.365Z,8.00
2022-10-05T05:09:32.360Z,8.00
2022-10-05T05:10:32.281Z,8.00
2022-10-05T05:11:32.310Z,12.00
2022-10-05T05:12:37.730Z,12.00
2022-10-05T05:13:32.298Z,12.00
2022-10-05T05:14:33.416Z,16.00
2022-10-05T05:15:32.195Z,20.00
2022-10-05T05:16:32.277Z,20.00
2022-10-05T05:17:32.203Z,28.00
2022-10-05T05:18:32.197Z,36.00
2022-10-05T05:19:32.160Z,40.00
2022-10-05T05:20:32.147Z,44.00
2022-10-05T05:21:32.128Z,48.00
2022-10-05T05:22:32.122Z,60.00
2022-10-05T05:23:32.133Z,64.00
2022-10-05T05:24:32.100Z,76.00
2022-10-05T05:25:32.121Z,80.00
2022-10-05T05:26:36.762Z,88.00
2022-10-05T05:27:33.064Z,100.00
2022-10-05T05:28:32.120Z,104.00
2022-10-05T05:29:32.051Z,112.00
2022-10-05T05:30:32.034Z,120.00
2022-10-05T05:31:32.067Z,120.00
2022-10-05T05:32:32.012Z,132.00
2022-10-05T05:33:31.998Z,136.00
2022-10-05T05:34:32.008Z,152.00
2022-10-05T05:35:31.974Z,164.00
2022-10-05T05:36:31.982Z,180.00
2022-10-05T05:37:31.952Z,196.00
2022-10-05T05:38:31.948Z,216.00
2022-10-05T05:39:31.940Z,228.00
2022-10-05T05:40:31.947Z,240.00
2022-10-05T05:41:31.930Z,244.00
2022-10-05T05:42:31.915Z,248.00
2022-10-05T05:43:31.889Z,256.00
2022-10-05T05:44:36.493Z,272.00
2022-10-05T05:45:33.868Z,288.00
2022-10-05T05:46:58.271Z,308.00
2022-10-05T05:47:32.988Z,336.00
2022-10-05T05:48:31.852Z,364.00
2022-10-05T05:49:31.831Z,400.00
2022-10-05T05:50:31.812Z,448.00
2022-10-05T05:51:31.799Z,500.00
2022-10-05T05:52:31.813Z,564.00
2022-10-05T05:53:31.775Z,632.00
2022-10-05T05:54:31.768Z,724.00
2022-10-05T05:55:31.755Z,804.00
2022-10-05T05:56:31.748Z,832.00
2022-10-05T05:57:31.762Z,820.00
2022-10-05T05:58:31.737Z,816.00
2022-10-05T05:59:31.733Z,828.00
2022-10-05T06:00:31.702Z,816.00
2022-10-05T06:01:33.646Z,764.00
2022-10-05T06:02:31.831Z,728.00
2022-10-05T06:03:31.703Z,716.00
2022-10-05T06:04:31.695Z,752.00
2022-10-05T06:05:31.665Z,792.00
2022-10-05T06:06:31.647Z,924.00
2022-10-05T06:07:31.621Z,928.00
2022-10-05T06:08:31.638Z,872.00
2022-10-05T06:09:31.617Z,840.00
2022-10-05T06:10:31.592Z,844.00
2022-10-05T06:11:31.590Z,872.00
2022-10-05T06:12:31.586Z,900.00
2022-10-05T06:13:31.576Z,868.00
2022-10-05T06:14:31.565Z,864.00
2022-10-05T06:15:31.536Z,876.00
2022-10-05T06:16:31.610Z,876.00
2022-10-05T06:17:31.520Z,892.00
2022-10-05T06:18:31.504Z,904.00
2022-10-05T06:19:31.507Z,932.00
2022-10-05T06:20:31.494Z,964.00
2022-10-05T06:21:31.466Z,984.00
2022-10-05T06:22:31.470Z,1004.00
2022-10-05T06:23:31.473Z,1056.00
2022-10-05T06:24:31.439Z,1136.00
2022-10-05T06:25:31.438Z,1220.00
2022-10-05T06:26:31.421Z,1260.00
2022-10-05T06:27:31.413Z,1316.00
2022-10-05T06:28:31.496Z,1372.00
2022-10-05T06:29:31.415Z,1476.00
2022-10-05T06:30:31.376Z,1612.00
2022-10-05T06:31:31.396Z,1732.00
2022-10-05T06:32:31.365Z,1808.00
2022-10-05T06:33:31.335Z,1812.00
2022-10-05T06:34:31.329Z,1836.00
2022-10-05T06:35:31.316Z,1832.00
2022-10-05T06:36:31.308Z,1788.00
2022-10-05T06:37:31.303Z,1740.00
2022-10-05T06:38:31.307Z,1664.00
2022-10-05T06:39:31.270Z,1584.00
2022-10-05T06:40:31.264Z,1516.00
2022-10-05T06:41:32.107Z,1492.00
2022-10-05T06:42:31.261Z,1492.00
2022-10-05T06:43:31.230Z,1488.00
2022-10-05T06:44:31.232Z,1512.00
2022-10-05T06:45:31.434Z,1564.00
2022-10-05T06:46:31.199Z,1592.00
2022-10-05T06:47:31.182Z,1608.00
2022-10-05T06:48:38.679Z,1660.00
2022-10-05T06:49:31.186Z,1736.00
2022-10-05T06:50:31.156Z,1792.00
2022-10-05T06:51:31.141Z,1884.00
2022-10-05T06:52:31.136Z,1920.00
2022-10-05T06:53:31.130Z,1936.00
2022-10-05T06:54:31.126Z,1892.00
2022-10-05T06:55:31.110Z,1888.00
2022-10-05T06:56:31.092Z,1940.00
2022-10-05T06:57:31.077Z,2068.00
2022-10-05T06:58:31.070Z,2172.00
2022-10-05T06:59:31.059Z,2272.00
2022-10-05T07:00:31.065Z,2348.00
2022-10-05T07:01:31.099Z,2444.00
2022-10-05T07:02:31.071Z,2536.00
2022-10-05T07:03:31.023Z,2656.00
2022-10-05T07:04:34.656Z,2740.00
2022-10-05T07:05:31.994Z,2720.00
2022-10-05T07:06:30.983Z,2732.00
2022-10-05T07:07:30.967Z,2796.00
2022-10-05T07:08:30.975Z,2840.00
2022-10-05T07:09:30.960Z,2908.00
2022-10-05T07:10:30.940Z,2932.00
2022-10-05T07:11:30.939Z,2932.00
2022-10-05T07:12:30.930Z,2936.00
2022-10-05T07:13:30.901Z,3000.00
2022-10-05T07:14:30.896Z,3032.00
2022-10-05T07:15:30.880Z,3176.00
2022-10-05T07:16:30.910Z,3204.00
2022-10-05T07:17:30.890Z,3168.00
2022-10-05T07:18:30.859Z,3164.00
2022-10-05T07:19:30.847Z,3180.00
2022-10-05T07:20:30.842Z,3288.00
2022-10-05T07:21:30.815Z,3276.00
2022-10-05T07:22:33.434Z,3324.00
2022-10-05T07:23:30.809Z,3400.00
2022-10-05T07:24:30.785Z,3476.00
2022-10-05T07:25:30.802Z,3512.00
2022-10-05T07:26:30.762Z,3520.00
2022-10-05T07:27:30.747Z,3648.00
2022-10-05T07:28:30.822Z,3756.00
2022-10-05T07:29:30.724Z,4068.00
2022-10-05T07:30:30.815Z,4212.00
2022-10-05T07:31:30.705Z,3972.00
2022-10-05T07:32:30.710Z,3896.00
2022-10-05T07:33:30.699Z,3808.00
2022-10-05T07:34:30.705Z,3916.00
2022-10-05T07:35:30.677Z,4000.00
2022-10-05T07:36:30.653Z,3940.00
2022-10-05T07:37:30.637Z,4028.00
2022-10-05T07:38:30.648Z,4096.00
2022-10-05T07:39:55.267Z,4200.00
2022-10-05T07:40:31.619Z,4256.00
2022-10-05T07:41:30.603Z,4356.00
2022-10-05T07:42:30.584Z,4512.00
2022-10-05T07:43:40.291Z,4488.00
2022-10-05T07:44:31.577Z,4728.00
2022-10-05T07:45:30.621Z,4744.00
2022-10-05T07:46:30.572Z,4720.00
2022-10-05T07:47:30.541Z,4592.00
2022-10-05T07:48:30.542Z,4620.00
2022-10-05T07:49:30.522Z,4784.00
2022-10-05T07:50:30.497Z,4696.00
2022-10-05T07:51:30.501Z,4228.00
2022-10-05T07:52:34.481Z,4064.00
2022-10-05T07:53:30.472Z,4080.00
2022-10-05T07:54:30.463Z,4072.00
2022-10-05T07:55:30.434Z,3960.00
2022-10-05T07:56:30.436Z,4024.00
2022-10-05T07:57:30.413Z,4084.00
2022-10-05T07:58:30.419Z,3980.00
2022-10-05T07:59:30.402Z,3880.00
2022-10-05T08:00:30.386Z,3840.00
2022-10-05T08:01:30.412Z,3836.00
2022-10-05T08:02:30.473Z,3864.00
2022-10-05T08:03:30.354Z,3856.00
2022-10-05T08:04:30.350Z,3940.00
2022-10-05T08:05:30.345Z,3960.00
2022-10-05T08:06:30.332Z,3904.00
2022-10-05T08:07:30.359Z,3752.00
2022-10-05T08:08:30.302Z,3548.00
2022-10-05T08:09:30.291Z,3304.00
2022-10-05T08:10:30.394Z,3100.00
2022-10-05T08:11:30.258Z,3068.00
2022-10-05T08:12:30.253Z,3168.00
2022-10-05T08:13:30.266Z,3232.00
2022-10-05T08:14:30.229Z,3372.00
2022-10-05T08:15:30.214Z,3508.00
2022-10-05T08:16:30.272Z,3560.00
2022-10-05T08:17:30.245Z,3504.00
2022-10-05T08:18:30.188Z,3416.00
2022-10-05T08:19:30.180Z,3436.00
2022-10-05T08:20:30.169Z,3504.00
2022-10-05T08:21:30.202Z,3508.00
2022-10-05T08:22:30.144Z,3504.00
2022-10-05T08:23:30.129Z,3560.00
2022-10-05T08:24:30.162Z,3684.00
2022-10-05T08:25:30.103Z,3752.00
2022-10-05T08:26:30.122Z,3836.00
2022-10-05T08:27:30.082Z,3892.00
2022-10-05T08:28:30.182Z,3892.00
2022-10-05T08:29:30.061Z,3928.00
2022-10-05T08:30:30.068Z,3896.00
2022-10-05T08:31:30.146Z,3980.00
2022-10-05T08:32:30.046Z,3896.00
2022-10-05T08:33:30.018Z,3796.00
2022-10-05T08:34:30.027Z,3728.00
2022-10-05T08:35:29.998Z,3580.00
2022-10-05T08:36:29.991Z,3524.00
2022-10-05T08:37:30.106Z,3520.00
2022-10-05T08:38:29.980Z,3424.00
2022-10-05T08:39:29.973Z,3408.00
2022-10-05T08:40:29.947Z,3376.00
2022-10-05T08:41:29.928Z,3356.00
2022-10-05T08:42:29.933Z,3352.00
2022-10-05T08:43:35.034Z,3356.00
2022-10-05T08:44:30.898Z,3324.00
2022-10-05T08:45:29.883Z,3236.00
2022-10-05T08:46:29.954Z,3184.00
2022-10-05T08:47:29.879Z,3172.00
2022-10-05T08:48:29.869Z,3040.00
2022-10-05T08:49:37.346Z,2992.00
2022-10-05T08:50:29.837Z,2972.00
2022-10-05T08:51:29.817Z,2908.00
2022-10-05T08:52:29.813Z,2824.00
2022-10-05T08:53:29.814Z,2800.00
2022-10-05T08:54:29.800Z,2708.00
2022-10-05T08:55:29.774Z,2636.00
2022-10-05T08:56:29.796Z,2568.00
2022-10-05T08:57:29.753Z,2532.00
2022-10-05T08:58:29.747Z,2500.00
2022-10-05T08:59:29.761Z,2504.00
2022-10-05T09:00:29.726Z,2496.00
2022-10-05T09:01:29.765Z,2444.00
2022-10-05T09:02:29.795Z,2348.00
2022-10-05T09:03:34.185Z,2348.00
2022-10-05T09:04:29.685Z,2348.00
2022-10-05T09:05:29.682Z,2392.00
2022-10-05T09:06:29.659Z,2332.00
2022-10-05T09:07:29.641Z,2360.00
2022-10-05T09:08:29.657Z,2404.00
2022-10-05T09:09:29.638Z,2504.00
2022-10-05T09:10:29.631Z,2736.00
2022-10-05T09:11:29.598Z,2920.00
2022-10-05T09:12:29.607Z,2956.00
2022-10-05T09:13:29.582Z,2952.00
2022-10-05T09:14:29.585Z,2912.00
2022-10-05T09:15:29.566Z,2868.00
2022-10-05T09:16:29.552Z,2868.00
2022-10-05T09:17:29.558Z,3004.00
2022-10-05T09:18:29.531Z,3164.00
2022-10-05T09:19:29.530Z,3224.00
2022-10-05T09:20:29.531Z,3312.00
2022-10-05T09:21:29.524Z,3480.00
2022-10-05T09:22:29.486Z,3556.00
2022-10-05T09:23:29.485Z,3660.00
2022-10-05T09:24:29.466Z,3852.00
2022-10-05T09:25:29.470Z,4072.00
2022-10-05T09:26:29.456Z,4028.00
2022-10-05T09:27:29.447Z,4032.00
2022-10-05T09:28:29.506Z,4164.00
2022-10-05T09:29:29.405Z,4368.00
2022-10-05T09:30:29.405Z,4512.00
2022-10-05T09:31:29.476Z,4568.00
2022-10-05T09:32:29.368Z,4612.00
2022-10-05T09:33:29.363Z,4756.00
2022-10-05T09:34:29.345Z,4936.00
2022-10-05T09:35:29.340Z,5000.00
2022-10-05T09:36:29.343Z,5080.00
2022-10-05T09:37:29.334Z,5040.00
2022-10-05T09:38:29.304Z,5068.00
2022-10-05T09:39:29.298Z,5212.00
2022-10-05T09:40:29.286Z,5312.00
2022-10-05T09:41:29.305Z,5384.00
2022-10-05T09:42:29.287Z,5256.00
2022-10-05T09:43:29.257Z,5224.00
2022-10-05T09:44:29.268Z,5384.00
2022-10-05T09:45:29.230Z,5504.00
2022-10-05T09:46:29.268Z,5528.00
2022-10-05T09:47:29.212Z,5584.00
2022-10-05T09:48:29.208Z,5988.00
2022-10-05T09:49:29.208Z,6288.00
2022-10-05T09:50:29.173Z,6072.00
2022-10-05T09:51:29.167Z,6020.00
2022-10-05T09:52:29.151Z,5940.00
2022-10-05T09:53:29.157Z,5832.00
2022-10-05T09:54:29.131Z,5768.00
2022-10-05T09:55:29.123Z,5820.00
2022-10-05T09:57:29.141Z,5772.00
2022-10-05T09:58:29.103Z,5824.00
2022-10-05T09:59:29.096Z,5760.00
2022-10-05T10:00:29.089Z,5776.00
2022-10-05T10:01:33.728Z,5720.00
2022-10-05T10:02:30.207Z,5772.00
2022-10-05T10:03:29.113Z,6016.00
2022-10-05T10:04:29.041Z,6136.00
2022-10-05T10:05:29.029Z,6204.00
2022-10-05T10:06:29.015Z,6244.00
2022-10-05T10:07:29.013Z,6284.00
2022-10-05T10:08:28.980Z,6268.00
2022-10-05T10:09:28.981Z,6316.00
2022-10-05T10:10:28.967Z,6624.00
2022-10-05T10:11:28.964Z,6800.00
2022-10-05T10:12:28.929Z,7324.00
2022-10-05T10:13:28.971Z,7840.00
2022-10-05T10:14:28.913Z,7468.00
2022-10-05T10:15:28.917Z,7980.00
2022-10-05T10:16:28.922Z,8200.00
2022-10-05T10:17:28.896Z,8116.00
2022-10-05T10:18:28.877Z,8212.00
2022-10-05T10:19:28.858Z,8200.00
2022-10-05T10:20:28.854Z,8264.00
2022-10-05T10:21:28.856Z,8368.00
2022-10-05T10:22:28.823Z,8188.00
2022-10-05T10:23:28.813Z,8372.00
2022-10-05T10:24:28.798Z,8528.00
2022-10-05T10:25:28.804Z,8400.00
2022-10-05T10:26:28.784Z,8336.00
2022-10-05T10:27:28.771Z,8208.00
2022-10-05T10:28:28.822Z,8272.00
2022-10-05T10:29:28.783Z,8808.00
2022-10-05T10:30:30.182Z,9148.00
2022-10-05T10:31:28.792Z,9376.00
2022-10-05T10:32:28.713Z,9740.00
2022-10-05T10:33:28.708Z,10296.00
2022-10-05T10:34:28.713Z,10408.00
2022-10-05T10:36:28.695Z,11104.00
2022-10-05T10:37:28.667Z,11376.00
2022-10-05T10:38:28.665Z,12072.00
2022-10-05T10:39:28.642Z,11624.00
2022-10-05T10:40:28.651Z,11512.00
2022-10-05T10:41:28.643Z,11072.00
2022-10-05T10:42:28.616Z,11128.00
2022-10-05T10:43:28.625Z,11992.00
2022-10-05T10:44:28.582Z,13860.00
2022-10-05T10:45:28.646Z,14280.00
2022-10-05T10:46:28.656Z,13548.00
2022-10-05T10:47:28.581Z,12792.00
2022-10-05T10:48:28.563Z,12340.00
2022-10-05T10:49:28.555Z,12208.00
2022-10-05T10:50:36.048Z,12008.00
2022-10-05T10:51:28.510Z,12060.00
2022-10-05T10:52:28.499Z,11748.00
2022-10-05T10:53:28.501Z,11508.00
2022-10-05T10:54:28.473Z,11624.00
2022-10-05T10:55:28.477Z,11268.00
2022-10-05T10:56:28.450Z,11120.00
2022-10-05T10:57:28.447Z,10528.00
2022-10-05T10:58:28.431Z,9836.00
2022-10-05T10:59:30.833Z,9148.00
2022-10-05T11:00:28.424Z,8572.00
2022-10-05T11:01:28.507Z,8152.00
2022-10-05T11:02:28.475Z,8320.00
2022-10-05T11:03:28.384Z,8592.00
2022-10-05T11:04:28.370Z,8636.00
2022-10-05T11:05:28.359Z,8568.00
2022-10-05T11:06:28.345Z,8264.00
2022-10-05T11:07:28.349Z,8288.00
2022-10-05T11:08:29.230Z,8336.00
2022-10-05T11:09:28.328Z,8308.00
2022-10-05T11:10:28.311Z,7976.00
2022-10-05T11:11:28.310Z,8284.00
2022-10-05T11:12:33.529Z,8060.00
2022-10-05T22:45:35.666Z,0.00
2022-10-05T22:46:35.546Z,0.00
2022-10-05T22:47:35.543Z,0.00
2022-10-05T22:48:35.524Z,0.00
2022-10-05T22:49:35.520Z,0.00
2022-10-05T22:50:35.501Z,0.00
2022-10-05T22:51:35.505Z,0.00
2022-10-05T22:52:35.481Z,0.00
2022-10-05T22:53:35.474Z,0.00
2022-10-05T22:54:37.414Z,0.00
2022-10-05T22:55:35.454Z,0.00
2022-10-05T22:56:35.442Z,0.00
2022-10-05T22:57:35.432Z,0.00
2022-10-05T22:58:35.414Z,0.00
2022-10-05T22:59:35.409Z,0.00
2022-10-05T23:00:57.025Z,0.00
2022-10-05T23:01:35.460Z,0.00
2022-10-05T23:02:35.435Z,0.00
2022-10-05T23:03:35.367Z,0.00
2022-10-05T23:04:35.349Z,0.00
2022-10-05T23:05:35.344Z,0.00
2022-10-05T23:06:35.343Z,0.00
2022-10-05T23:07:35.319Z,0.00
2022-10-05T23:08:35.316Z,0.00
2022-10-05T23:09:35.298Z,0.00
2022-10-05T23:10:35.290Z,0.00
2022-10-05T23:11:35.288Z,0.00
2022-10-05T23:12:35.260Z,0.00
2022-10-05T23:13:35.254Z,0.00
2022-10-05T23:14:35.244Z,0.00
2022-10-05T23:15:35.233Z,0.00
2022-10-05T23:16:35.327Z,0.00
2022-10-05T23:17:35.233Z,0.00
2022-10-05T23:18:35.196Z,0.00
2022-10-05T23:19:35.190Z,0.00
2022-10-05T23:20:35.186Z,0.00
2022-10-05T23:21:35.183Z,0.00
2022-10-05T23:22:35.154Z,0.00
2022-10-05T23:23:35.146Z,0.00
2022-10-05T23:24:35.139Z,0.00
2022-10-05T23:25:35.132Z,0.00
2022-10-05T23:26:35.121Z,0.00
2022-10-05T23:27:35.104Z,0.00
2022-10-05T23:28:35.206Z,0.00
2022-10-05T23:29:35.086Z,0.00
2022-10-05T23:30:35.083Z,0.00
2022-10-05T23:31:35.069Z,0.00
2022-10-05T23:32:35.042Z,0.00
2022-10-05T23:33:35.057Z,0.00
2022-10-05T23:34:35.021Z,0.00
2022-10-05T23:35:35.036Z,0.00
2022-10-05T23:36:35.027Z,0.00
2022-10-05T23:37:34.993Z,0.00
2022-10-05T23:38:34.980Z,0.00
2022-10-05T23:39:34.970Z,0.00
2022-10-05T23:40:34.967Z,0.00
2022-10-05T23:41:34.960Z,0.00
2022-10-05T23:42:34.950Z,0.00
2022-10-05T23:43:34.932Z,0.00
2022-10-05T23:44:34.928Z,0.00
2022-10-05T23:45:35.024Z,0.00
2022-10-05T23:46:34.888Z,0.00
2022-10-05T23:47:34.881Z,0.00
2022-10-05T23:48:34.878Z,0.00
2022-10-05T23:49:34.889Z,0.00
2022-10-05T23:50:34.850Z,0.00
2022-10-05T23:51:34.849Z,0.00
2022-10-05T23:52:34.825Z,0.00
2022-10-05T23:53:34.826Z,0.00
2022-10-05T23:54:34.889Z,0.00
2022-10-05T23:55:34.795Z,0.00
2022-10-05T23:56:34.791Z,0.00
2022-10-05T23:57:34.792Z,0.00
2022-10-05T23:58:34.760Z,0.00
2022-10-05T23:59:34.759Z,0.00
